Terminal Aerodrome Forecast
Issued by NWS

Home | Current Version | Previous Version | Graphics & Text | Print | Product List | Glossary On
Versions: 1 2 3 4 5 6 7 8 9 10 11 12 13 14 15 16 17 18 19 20
000
FTUS43 KBIS 191608 AAB
TAFDIK
TAF AMD
KDIK 191608Z 1916/2012 08007KT 3SM BR SCT002 BKN250
      TEMPO 1916/1917 2SM BR BKN001 BKN250
     FM191700 12008KT 6SM BR SCT005 BKN250
     FM191800 16007KT P6SM SCT250
     FM200300 VRB03KT P6SM SCT110 BKN150
     FM200500 28007KT P6SM -RA BKN070 OVC090=

USA.gov is the U.S. government's official web portal to all federal, state and local government web resources and services.